sensor_id;sensor_type;location;lat;lon;timestamp;P1;durP1;ratioP1;P2;durP2;ratioP2
27491;SDS011;14927;51.210;6.838;2024-01-06T00:03:14;12.15;;;8.55;;
27491;SDS011;14927;51.210;6.838;2024-01-06T00:08:56;8.38;;;7.28;;
27491;SDS011;14927;51.210;6.838;2024-01-06T00:11:47;11.15;;;7.90;;
27491;SDS011;14927;51.210;6.838;2024-01-06T00:30:42;13.13;;;10.30;;
27491;SDS011;14927;51.210;6.838;2024-01-06T00:33:35;13.65;;;10.23;;
27491;SDS011;14927;51.210;6.838;2024-01-06T00:36:23;12.95;;;9.52;;
27491;SDS011;14927;51.210;6.838;2024-01-06T00:39:12;13.68;;;10.55;;
27491;SDS011;14927;51.210;6.838;2024-01-06T00:42:00;17.40;;;10.40;;
27491;SDS011;14927;51.210;6.838;2024-01-06T00:44:48;13.25;;;10.60;;
27491;SDS011;14927;51.210;6.838;2024-01-06T00:47:32;13.63;;;9.98;;
27491;SDS011;14927;51.210;6.838;2024-01-06T00:50:20;13.30;;;10.45;;
27491;SDS011;14927;51.210;6.838;2024-01-06T00:53:09;12.45;;;10.18;;
27491;SDS011;14927;51.210;6.838;2024-01-06T00:56:09;13.02;;;10.45;;
27491;SDS011;14927;51.210;6.838;2024-01-06T00:58:57;16.23;;;10.32;;
27491;SDS011;14927;51.210;6.838;2024-01-06T01:01:42;12.88;;;9.85;;
27491;SDS011;14927;51.210;6.838;2024-01-06T01:04:32;14.18;;;10.40;;
27491;SDS011;14927;51.210;6.838;2024-01-06T01:07:17;15.30;;;10.63;;
27491;SDS011;14927;51.210;6.838;2024-01-06T01:10:05;13.82;;;11.07;;
27491;SDS011;14927;51.210;6.838;2024-01-06T01:12:56;12.95;;;10.00;;
27491;SDS011;14927;51.210;6.838;2024-01-06T01:15:41;15.07;;;11.10;;
27491;SDS011;14927;51.210;6.838;2024-01-06T01:18:26;14.23;;;11.25;;
27491;SDS011;14927;51.210;6.838;2024-01-06T01:21:19;14.88;;;11.23;;
27491;SDS011;14927;51.210;6.838;2024-01-06T01:24:08;16.42;;;10.88;;
27491;SDS011;14927;51.210;6.838;2024-01-06T01:27:03;14.23;;;10.82;;
27491;SDS011;14927;51.210;6.838;2024-01-06T01:29:48;14.00;;;10.80;;
27491;SDS011;14927;51.210;6.838;2024-01-06T01:32:39;15.70;;;10.80;;
27491;SDS011;14927;51.210;6.838;2024-01-06T01:35:26;18.33;;;11.93;;
27491;SDS011;14927;51.210;6.838;2024-01-06T01:40:57;14.27;;;11.30;;
27491;SDS011;14927;51.210;6.838;2024-01-06T01:43:59;14.07;;;10.80;;
27491;SDS011;14927;51.210;6.838;2024-01-06T01:46:50;15.98;;;11.50;;
27491;SDS011;14927;51.210;6.838;2024-01-06T01:49:42;19.00;;;11.43;;
27491;SDS011;14927;51.210;6.838;2024-01-06T01:52:26;16.85;;;12.23;;
27491;SDS011;14927;51.210;6.838;2024-01-06T01:55:12;14.90;;;11.50;;
27491;SDS011;14927;51.210;6.838;2024-01-06T01:58:08;14.73;;;11.40;;
27491;SDS011;14927;51.210;6.838;2024-01-06T02:00:57;15.05;;;11.05;;
27491;SDS011;14927;51.210;6.838;2024-01-06T02:03:41;17.40;;;11.63;;
27491;SDS011;14927;51.210;6.838;2024-01-06T02:06:32;17.98;;;11.93;;
27491;SDS011;14927;51.210;6.838;2024-01-06T02:09:29;17.65;;;12.35;;
27491;SDS011;14927;51.210;6.838;2024-01-06T02:12:23;16.60;;;12.60;;
27491;SDS011;14927;51.210;6.838;2024-01-06T02:15:20;16.95;;;12.35;;
27491;SDS011;14927;51.210;6.838;2024-01-06T02:18:08;15.98;;;11.73;;
27491;SDS011;14927;51.210;6.838;2024-01-06T02:21:01;14.93;;;11.63;;
27491;SDS011;14927;51.210;6.838;2024-01-06T02:23:46;15.57;;;11.70;;
27491;SDS011;14927;51.210;6.838;2024-01-06T02:26:35;16.67;;;12.27;;
27491;SDS011;14927;51.210;6.838;2024-01-06T02:29:26;16.58;;;12.18;;
27491;SDS011;14927;51.210;6.838;2024-01-06T02:32:19;16.15;;;12.70;;
27491;SDS011;14927;51.210;6.838;2024-01-06T02:35:08;16.38;;;12.70;;
27491;SDS011;14927;51.210;6.838;2024-01-06T02:37:58;15.55;;;12.10;;
27491;SDS011;14927;51.210;6.838;2024-01-06T02:40:50;18.40;;;13.88;;
27491;SDS011;14927;51.210;6.838;2024-01-06T02:43:38;17.85;;;13.93;;
27491;SDS011;14927;51.210;6.838;2024-01-06T02:46:23;18.67;;;13.73;;
27491;SDS011;14927;51.210;6.838;2024-01-06T02:49:22;18.08;;;13.23;;
27491;SDS011;14927;51.210;6.838;2024-01-06T02:52:13;17.17;;;13.65;;
27491;SDS011;14927;51.210;6.838;2024-01-06T02:55:11;21.42;;;14.32;;
27491;SDS011;14927;51.210;6.838;2024-01-06T02:58:02;20.35;;;14.60;;
27491;SDS011;14927;51.210;6.838;2024-01-06T03:00:50;19.17;;;15.05;;
27491;SDS011;14927;51.210;6.838;2024-01-06T03:03:35;19.13;;;14.65;;
27491;SDS011;14927;51.210;6.838;2024-01-06T03:06:24;18.65;;;15.07;;
27491;SDS011;14927;51.210;6.838;2024-01-06T03:09:09;21.35;;;15.48;;
27491;SDS011;14927;51.210;6.838;2024-01-06T03:12:10;23.27;;;16.45;;
27491;SDS011;14927;51.210;6.838;2024-01-06T03:14:58;24.83;;;16.17;;
27491;SDS011;14927;51.210;6.838;2024-01-06T03:17:54;23.55;;;15.93;;
27491;SDS011;14927;51.210;6.838;2024-01-06T03:20:41;25.20;;;17.07;;
27491;SDS011;14927;51.210;6.838;2024-01-06T03:23:28;21.98;;;15.77;;
27491;SDS011;14927;51.210;6.838;2024-01-06T03:26:13;24.30;;;17.40;;
27491;SDS011;14927;51.210;6.838;2024-01-06T03:29:01;22.48;;;17.08;;
27491;SDS011;14927;51.210;6.838;2024-01-06T03:31:46;20.30;;;15.77;;
27491;SDS011;14927;51.210;6.838;2024-01-06T03:34:40;21.85;;;16.77;;
27491;SDS011;14927;51.210;6.838;2024-01-06T03:37:27;24.08;;;17.08;;
27491;SDS011;14927;51.210;6.838;2024-01-06T03:40:19;24.70;;;17.40;;
27491;SDS011;14927;51.210;6.838;2024-01-06T03:43:03;21.17;;;16.55;;
27491;SDS011;14927;51.210;6.838;2024-01-06T03:45:50;24.17;;;17.88;;
27491;SDS011;14927;51.210;6.838;2024-01-06T03:48:36;23.08;;;17.13;;
27491;SDS011;14927;51.210;6.838;2024-01-06T03:51:23;28.40;;;19.60;;
27491;SDS011;14927;51.210;6.838;2024-01-06T03:54:11;25.30;;;18.98;;
27491;SDS011;14927;51.210;6.838;2024-01-06T03:57:01;30.60;;;20.05;;
27491;SDS011;14927;51.210;6.838;2024-01-06T03:59:49;25.90;;;18.77;;
27491;SDS011;14927;51.210;6.838;2024-01-06T04:02:48;27.10;;;18.55;;
27491;SDS011;14927;51.210;6.838;2024-01-06T04:05:54;26.05;;;19.45;;
27491;SDS011;14927;51.210;6.838;2024-01-06T04:08:45;26.40;;;19.15;;
27491;SDS011;14927;51.210;6.838;2024-01-06T04:11:49;24.45;;;17.27;;
27491;SDS011;14927;51.210;6.838;2024-01-06T04:14:34;21.17;;;14.43;;
27491;SDS011;14927;51.210;6.838;2024-01-06T04:17:26;18.65;;;13.30;;
27491;SDS011;14927;51.210;6.838;2024-01-06T04:20:27;17.02;;;11.73;;
27491;SDS011;14927;51.210;6.838;2024-01-06T04:23:15;14.68;;;10.25;;
27491;SDS011;14927;51.210;6.838;2024-01-06T04:26:11;13.63;;;10.23;;
27491;SDS011;14927;51.210;6.838;2024-01-06T04:28:59;13.80;;;10.10;;
27491;SDS011;14927;51.210;6.838;2024-01-06T04:31:47;11.82;;;8.75;;
27491;SDS011;14927;51.210;6.838;2024-01-06T04:34:31;11.85;;;8.75;;
27491;SDS011;14927;51.210;6.838;2024-01-06T04:37:20;11.63;;;8.70;;
27491;SDS011;14927;51.210;6.838;2024-01-06T04:40:05;11.48;;;7.90;;
27491;SDS011;14927;51.210;6.838;2024-01-06T04:42:56;12.77;;;8.65;;
27491;SDS011;14927;51.210;6.838;2024-01-06T04:45:44;9.60;;;7.53;;
27491;SDS011;14927;51.210;6.838;2024-01-06T04:48:34;11.13;;;8.25;;
27491;SDS011;14927;51.210;6.838;2024-01-06T04:51:24;11.43;;;8.23;;
27491;SDS011;14927;51.210;6.838;2024-01-06T04:54:18;13.30;;;8.95;;
27491;SDS011;14927;51.210;6.838;2024-01-06T04:57:09;12.25;;;8.15;;
27491;SDS011;14927;51.210;6.838;2024-01-06T05:00:00;12.45;;;9.18;;
27491;SDS011;14927;51.210;6.838;2024-01-06T05:02:52;13.70;;;8.50;;
27491;SDS011;14927;51.210;6.838;2024-01-06T05:05:42;12.32;;;8.90;;
27491;SDS011;14927;51.210;6.838;2024-01-06T05:08:34;11.63;;;8.43;;
27491;SDS011;14927;51.210;6.838;2024-01-06T05:11:28;12.65;;;8.48;;
27491;SDS011;14927;51.210;6.838;2024-01-06T05:14:36;13.02;;;9.27;;
27491;SDS011;14927;51.210;6.838;2024-01-06T05:17:26;11.55;;;8.18;;
27491;SDS011;14927;51.210;6.838;2024-01-06T05:20:16;12.18;;;8.77;;
27491;SDS011;14927;51.210;6.838;2024-01-06T05:23:06;12.45;;;8.93;;
27491;SDS011;14927;51.210;6.838;2024-01-06T05:25:56;12.73;;;8.73;;
27491;SDS011;14927;51.210;6.838;2024-01-06T05:28:52;14.63;;;9.43;;
27491;SDS011;14927;51.210;6.838;2024-01-06T05:31:37;13.30;;;9.15;;
27491;SDS011;14927;51.210;6.838;2024-01-06T05:34:31;15.85;;;9.25;;
27491;SDS011;14927;51.210;6.838;2024-01-06T05:37:16;13.05;;;9.32;;
27491;SDS011;14927;51.210;6.838;2024-01-06T05:40:11;15.15;;;8.82;;
27491;SDS011;14927;51.210;6.838;2024-01-06T05:42:59;14.38;;;9.07;;
27491;SDS011;14927;51.210;6.838;2024-01-06T05:45:47;12.55;;;8.90;;
27491;SDS011;14927;51.210;6.838;2024-01-06T05:48:41;11.95;;;7.47;;
27491;SDS011;14927;51.210;6.838;2024-01-06T05:51:27;10.57;;;7.22;;
27491;SDS011;14927;51.210;6.838;2024-01-06T05:54:13;9.95;;;7.18;;
27491;SDS011;14927;51.210;6.838;2024-01-06T05:57:00;9.35;;;7.13;;
27491;SDS011;14927;51.210;6.838;2024-01-06T05:59:47;11.02;;;8.18;;
27491;SDS011;14927;51.210;6.838;2024-01-06T06:02:32;13.00;;;9.02;;
27491;SDS011;14927;51.210;6.838;2024-01-06T06:05:19;12.27;;;9.02;;
27491;SDS011;14927;51.210;6.838;2024-01-06T06:08:09;13.97;;;9.87;;
27491;SDS011;14927;51.210;6.838;2024-01-06T06:10:53;13.38;;;9.65;;
27491;SDS011;14927;51.210;6.838;2024-01-06T06:13:54;15.95;;;10.15;;
27491;SDS011;14927;51.210;6.838;2024-01-06T06:16:38;15.10;;;10.63;;
27491;SDS011;14927;51.210;6.838;2024-01-06T06:19:23;15.88;;;10.90;;
27491;SDS011;14927;51.210;6.838;2024-01-06T06:22:07;14.75;;;10.45;;
27491;SDS011;14927;51.210;6.838;2024-01-06T06:24:52;14.98;;;10.63;;
27491;SDS011;14927;51.210;6.838;2024-01-06T06:27:38;15.80;;;10.52;;
27491;SDS011;14927;51.210;6.838;2024-01-06T06:30:23;16.15;;;10.70;;
27491;SDS011;14927;51.210;6.838;2024-01-06T06:33:07;13.75;;;10.20;;
27491;SDS011;14927;51.210;6.838;2024-01-06T06:35:52;13.57;;;9.85;;
27491;SDS011;14927;51.210;6.838;2024-01-06T06:38:37;14.40;;;10.63;;
27491;SDS011;14927;51.210;6.838;2024-01-06T06:41:21;14.10;;;9.77;;
27491;SDS011;14927;51.210;6.838;2024-01-06T06:44:09;14.75;;;10.55;;
27491;SDS011;14927;51.210;6.838;2024-01-06T06:46:54;13.57;;;10.00;;
27491;SDS011;14927;51.210;6.838;2024-01-06T06:49:39;14.55;;;10.70;;
27491;SDS011;14927;51.210;6.838;2024-01-06T06:52:25;16.77;;;11.68;;
27491;SDS011;14927;51.210;6.838;2024-01-06T06:55:09;15.38;;;11.00;;
27491;SDS011;14927;51.210;6.838;2024-01-06T06:57:54;14.57;;;10.77;;
27491;SDS011;14927;51.210;6.838;2024-01-06T07:00:39;13.95;;;9.88;;
27491;SDS011;14927;51.210;6.838;2024-01-06T07:03:23;15.10;;;10.23;;
27491;SDS011;14927;51.210;6.838;2024-01-06T07:06:08;16.00;;;10.93;;
27491;SDS011;14927;51.210;6.838;2024-01-06T07:08:56;14.50;;;9.77;;
27491;SDS011;14927;51.210;6.838;2024-01-06T07:11:41;14.40;;;10.63;;
27491;SDS011;14927;51.210;6.838;2024-01-06T07:14:25;15.48;;;10.82;;
27491;SDS011;14927;51.210;6.838;2024-01-06T07:17:10;15.40;;;10.95;;
27491;SDS011;14927;51.210;6.838;2024-01-06T07:19:55;15.60;;;11.18;;
27491;SDS011;14927;51.210;6.838;2024-01-06T07:22:39;15.82;;;10.73;;
27491;SDS011;14927;51.210;6.838;2024-01-06T07:25:25;16.25;;;11.80;;
27491;SDS011;14927;51.210;6.838;2024-01-06T07:28:09;17.60;;;10.30;;
27491;SDS011;14927;51.210;6.838;2024-01-06T07:30:54;14.63;;;10.10;;
27491;SDS011;14927;51.210;6.838;2024-01-06T07:33:38;17.58;;;11.05;;
27491;SDS011;14927;51.210;6.838;2024-01-06T07:36:23;15.13;;;10.13;;
27491;SDS011;14927;51.210;6.838;2024-01-06T07:39:08;16.83;;;10.05;;
27491;SDS011;14927;51.210;6.838;2024-01-06T07:41:53;15.65;;;10.55;;
27491;SDS011;14927;51.210;6.838;2024-01-06T07:44:37;15.45;;;11.07;;
27491;SDS011;14927;51.210;6.838;2024-01-06T07:47:22;14.85;;;10.63;;
27491;SDS011;14927;51.210;6.838;2024-01-06T07:50:08;16.05;;;10.95;;
27491;SDS011;14927;51.210;6.838;2024-01-06T07:52:53;15.73;;;11.00;;
27491;SDS011;14927;51.210;6.838;2024-01-06T07:55:38;16.55;;;11.45;;
27491;SDS011;14927;51.210;6.838;2024-01-06T07:58:22;16.52;;;11.10;;
27491;SDS011;14927;51.210;6.838;2024-01-06T08:01:07;16.58;;;11.18;;
27491;SDS011;14927;51.210;6.838;2024-01-06T08:03:52;16.80;;;11.80;;
27491;SDS011;14927;51.210;6.838;2024-01-06T08:06:36;16.80;;;10.70;;
27491;SDS011;14927;51.210;6.838;2024-01-06T08:09:21;18.70;;;11.55;;
27491;SDS011;14927;51.210;6.838;2024-01-06T08:12:07;18.42;;;12.65;;
27491;SDS011;14927;51.210;6.838;2024-01-06T08:14:52;18.85;;;13.02;;
27491;SDS011;14927;51.210;6.838;2024-01-06T08:17:36;19.33;;;12.57;;
27491;SDS011;14927;51.210;6.838;2024-01-06T08:20:22;17.63;;;13.05;;
27491;SDS011;14927;51.210;6.838;2024-01-06T08:23:07;19.80;;;13.20;;
27491;SDS011;14927;51.210;6.838;2024-01-06T08:25:51;18.33;;;13.38;;
27491;SDS011;14927;51.210;6.838;2024-01-06T08:28:36;19.88;;;14.20;;
27491;SDS011;14927;51.210;6.838;2024-01-06T08:31:20;19.63;;;14.50;;
27491;SDS011;14927;51.210;6.838;2024-01-06T08:34:06;22.50;;;14.70;;
27491;SDS011;14927;51.210;6.838;2024-01-06T08:36:51;20.77;;;14.70;;
27491;SDS011;14927;51.210;6.838;2024-01-06T08:39:35;19.23;;;14.07;;
27491;SDS011;14927;51.210;6.838;2024-01-06T08:42:20;20.40;;;14.38;;
27491;SDS011;14927;51.210;6.838;2024-01-06T08:45:05;22.92;;;14.82;;
27491;SDS011;14927;51.210;6.838;2024-01-06T08:47:49;21.80;;;15.23;;
27491;SDS011;14927;51.210;6.838;2024-01-06T08:50:34;23.52;;;15.60;;
27491;SDS011;14927;51.210;6.838;2024-01-06T08:53:19;23.48;;;15.98;;
27491;SDS011;14927;51.210;6.838;2024-01-06T08:56:03;20.77;;;15.02;;
27491;SDS011;14927;51.210;6.838;2024-01-06T08:58:48;19.77;;;12.85;;
27491;SDS011;14927;51.210;6.838;2024-01-06T09:01:33;18.02;;;11.68;;
27491;SDS011;14927;51.210;6.838;2024-01-06T09:04:19;18.73;;;12.30;;
27491;SDS011;14927;51.210;6.838;2024-01-06T09:07:04;20.45;;;11.85;;
27491;SDS011;14927;51.210;6.838;2024-01-06T09:09:48;18.90;;;12.45;;
27491;SDS011;14927;51.210;6.838;2024-01-06T09:12:33;19.33;;;13.65;;
27491;SDS011;14927;51.210;6.838;2024-01-06T09:15:17;19.63;;;12.98;;
27491;SDS011;14927;51.210;6.838;2024-01-06T09:18:02;21.45;;;13.77;;
27491;SDS011;14927;51.210;6.838;2024-01-06T09:20:47;26.38;;;14.18;;
27491;SDS011;14927;51.210;6.838;2024-01-06T09:23:31;23.52;;;15.35;;
27491;SDS011;14927;51.210;6.838;2024-01-06T09:26:16;22.83;;;13.52;;
27491;SDS011;14927;51.210;6.838;2024-01-06T09:29:01;23.67;;;13.95;;
27491;SDS011;14927;51.210;6.838;2024-01-06T09:31:46;24.52;;;14.90;;
27491;SDS011;14927;51.210;6.838;2024-01-06T09:34:30;24.13;;;14.48;;
27491;SDS011;14927;51.210;6.838;2024-01-06T09:37:15;24.13;;;14.95;;
27491;SDS011;14927;51.210;6.838;2024-01-06T09:40:00;23.13;;;14.60;;
27491;SDS011;14927;51.210;6.838;2024-01-06T09:42:44;26.05;;;16.05;;
27491;SDS011;14927;51.210;6.838;2024-01-06T09:45:29;27.20;;;16.05;;
27491;SDS011;14927;51.210;6.838;2024-01-06T09:48:14;27.83;;;16.20;;
27491;SDS011;14927;51.210;6.838;2024-01-06T09:50:59;25.92;;;15.90;;
27491;SDS011;14927;51.210;6.838;2024-01-06T09:53:48;25.08;;;16.08;;
27491;SDS011;14927;51.210;6.838;2024-01-06T09:56:39;27.75;;;16.20;;
27491;SDS011;14927;51.210;6.838;2024-01-06T09:59:23;27.63;;;15.95;;
27491;SDS011;14927;51.210;6.838;2024-01-06T10:02:08;27.25;;;17.05;;
27491;SDS011;14927;51.210;6.838;2024-01-06T10:04:53;31.00;;;18.35;;
27491;SDS011;14927;51.210;6.838;2024-01-06T10:07:38;29.17;;;18.25;;
27491;SDS011;14927;51.210;6.838;2024-01-06T10:10:27;29.13;;;17.92;;
27491;SDS011;14927;51.210;6.838;2024-01-06T10:13:11;30.70;;;19.15;;
27491;SDS011;14927;51.210;6.838;2024-01-06T10:16:00;31.05;;;19.10;;
27491;SDS011;14927;51.210;6.838;2024-01-06T10:18:45;30.05;;;18.83;;
27491;SDS011;14927;51.210;6.838;2024-01-06T10:21:29;30.80;;;20.13;;
27491;SDS011;14927;51.210;6.838;2024-01-06T10:24:18;32.20;;;20.02;;
27491;SDS011;14927;51.210;6.838;2024-01-06T10:27:03;30.55;;;19.95;;
27491;SDS011;14927;51.210;6.838;2024-01-06T10:29:48;33.08;;;20.20;;
27491;SDS011;14927;51.210;6.838;2024-01-06T10:32:32;34.38;;;20.75;;
27491;SDS011;14927;51.210;6.838;2024-01-06T10:35:18;34.75;;;20.55;;
27491;SDS011;14927;51.210;6.838;2024-01-06T10:38:03;35.50;;;21.60;;
27491;SDS011;14927;51.210;6.838;2024-01-06T10:43:50;36.13;;;21.45;;
27491;SDS011;14927;51.210;6.838;2024-01-06T10:46:36;34.40;;;21.10;;
27491;SDS011;14927;51.210;6.838;2024-01-06T10:49:21;31.48;;;19.15;;
27491;SDS011;14927;51.210;6.838;2024-01-06T10:52:07;33.83;;;19.73;;
27491;SDS011;14927;51.210;6.838;2024-01-06T10:54:56;31.25;;;17.70;;
27491;SDS011;14927;51.210;6.838;2024-01-06T10:57:40;27.77;;;16.80;;
27491;SDS011;14927;51.210;6.838;2024-01-06T11:00:28;27.23;;;17.23;;
27491;SDS011;14927;51.210;6.838;2024-01-06T11:03:13;29.77;;;18.13;;
27491;SDS011;14927;51.210;6.838;2024-01-06T11:06:01;29.52;;;17.50;;
27491;SDS011;14927;51.210;6.838;2024-01-06T11:11:50;31.25;;;18.42;;
27491;SDS011;14927;51.210;6.838;2024-01-06T11:14:39;29.42;;;19.05;;
27491;SDS011;14927;51.210;6.838;2024-01-06T11:20:37;32.15;;;19.13;;
27491;SDS011;14927;51.210;6.838;2024-01-06T11:23:22;32.50;;;19.38;;
27491;SDS011;14927;51.210;6.838;2024-01-06T11:26:08;33.15;;;20.58;;
27491;SDS011;14927;51.210;6.838;2024-01-06T11:28:53;33.90;;;20.85;;
27491;SDS011;14927;51.210;6.838;2024-01-06T11:31:41;29.80;;;18.83;;
27491;SDS011;14927;51.210;6.838;2024-01-06T11:34:26;35.05;;;18.40;;
27491;SDS011;14927;51.210;6.838;2024-01-06T11:37:20;29.48;;;19.33;;
27491;SDS011;14927;51.210;6.838;2024-01-06T11:40:15;30.50;;;18.25;;
27491;SDS011;14927;51.210;6.838;2024-01-06T11:43:08;31.42;;;18.83;;
27491;SDS011;14927;51.210;6.838;2024-01-06T11:45:55;30.02;;;19.17;;
27491;SDS011;14927;51.210;6.838;2024-01-06T11:48:44;29.63;;;18.98;;
27491;SDS011;14927;51.210;6.838;2024-01-06T11:51:34;30.30;;;19.80;;
27491;SDS011;14927;51.210;6.838;2024-01-06T11:54:20;32.83;;;21.60;;
27491;SDS011;14927;51.210;6.838;2024-01-06T11:57:05;35.55;;;22.77;;
27491;SDS011;14927;51.210;6.838;2024-01-06T11:59:50;37.30;;;23.10;;
27491;SDS011;14927;51.210;6.838;2024-01-06T12:02:34;37.13;;;22.63;;
27491;SDS011;14927;51.210;6.838;2024-01-06T12:05:19;46.33;;;24.95;;
27491;SDS011;14927;51.210;6.838;2024-01-06T12:08:04;43.83;;;25.85;;
27491;SDS011;14927;51.210;6.838;2024-01-06T12:10:50;39.90;;;24.15;;
27491;SDS011;14927;51.210;6.838;2024-01-06T12:13:34;36.92;;;24.08;;
27491;SDS011;14927;51.210;6.838;2024-01-06T12:16:19;40.38;;;25.08;;
27491;SDS011;14927;51.210;6.838;2024-01-06T12:19:03;41.80;;;24.50;;
27491;SDS011;14927;51.210;6.838;2024-01-06T12:21:48;40.53;;;24.75;;
27491;SDS011;14927;51.210;6.838;2024-01-06T12:24:33;42.50;;;26.33;;
27491;SDS011;14927;51.210;6.838;2024-01-06T12:27:17;48.20;;;28.27;;
27491;SDS011;14927;51.210;6.838;2024-01-06T12:30:05;41.05;;;25.50;;
27491;SDS011;14927;51.210;6.838;2024-01-06T12:32:59;38.38;;;24.20;;
27491;SDS011;14927;51.210;6.838;2024-01-06T12:35:45;43.55;;;25.70;;
27491;SDS011;14927;51.210;6.838;2024-01-06T12:38:30;54.08;;;29.30;;
27491;SDS011;14927;51.210;6.838;2024-01-06T12:41:14;50.15;;;30.10;;
27491;SDS011;14927;51.210;6.838;2024-01-06T12:43:59;45.63;;;27.38;;
27491;SDS011;14927;51.210;6.838;2024-01-06T12:46:44;51.40;;;28.10;;
27491;SDS011;14927;51.210;6.838;2024-01-06T12:49:29;59.03;;;30.38;;
27491;SDS011;14927;51.210;6.838;2024-01-06T12:52:13;53.13;;;31.02;;
27491;SDS011;14927;51.210;6.838;2024-01-06T12:54:58;54.03;;;32.17;;
27491;SDS011;14927;51.210;6.838;2024-01-06T12:57:42;54.17;;;30.92;;
27491;SDS011;14927;51.210;6.838;2024-01-06T13:00:27;53.05;;;31.33;;
27491;SDS011;14927;51.210;6.838;2024-01-06T13:03:11;58.85;;;32.03;;
27491;SDS011;14927;51.210;6.838;2024-01-06T13:05:56;62.05;;;35.20;;
27491;SDS011;14927;51.210;6.838;2024-01-06T13:08:41;64.50;;;36.80;;
27491;SDS011;14927;51.210;6.838;2024-01-06T13:11:27;68.93;;;38.17;;
27491;SDS011;14927;51.210;6.838;2024-01-06T13:14:12;56.25;;;31.80;;
27491;SDS011;14927;51.210;6.838;2024-01-06T13:16:57;49.92;;;28.83;;
27491;SDS011;14927;51.210;6.838;2024-01-06T13:19:41;46.38;;;28.00;;
27491;SDS011;14927;51.210;6.838;2024-01-06T13:22:26;42.25;;;24.08;;
27491;SDS011;14927;51.210;6.838;2024-01-06T13:25:11;42.65;;;24.75;;
27491;SDS011;14927;51.210;6.838;2024-01-06T13:27:55;36.38;;;22.20;;
27491;SDS011;14927;51.210;6.838;2024-01-06T13:30:40;41.35;;;24.17;;
27491;SDS011;14927;51.210;6.838;2024-01-06T13:33:25;45.35;;;25.35;;
27491;SDS011;14927;51.210;6.838;2024-01-06T13:36:09;39.45;;;22.52;;
27491;SDS011;14927;51.210;6.838;2024-01-06T13:38:54;39.83;;;22.08;;
27491;SDS011;14927;51.210;6.838;2024-01-06T13:41:38;32.75;;;20.55;;
27491;SDS011;14927;51.210;6.838;2024-01-06T13:44:23;33.03;;;20.25;;
27491;SDS011;14927;51.210;6.838;2024-01-06T13:47:08;32.15;;;19.73;;
27491;SDS011;14927;51.210;6.838;2024-01-06T13:49:52;33.88;;;20.42;;
27491;SDS011;14927;51.210;6.838;2024-01-06T13:52:39;33.90;;;20.95;;
27491;SDS011;14927;51.210;6.838;2024-01-06T13:55:23;36.75;;;22.00;;
27491;SDS011;14927;51.210;6.838;2024-01-06T13:58:08;45.25;;;19.92;;
27491;SDS011;14927;51.210;6.838;2024-01-06T14:00:53;35.28;;;19.63;;
27491;SDS011;14927;51.210;6.838;2024-01-06T14:03:38;28.45;;;15.82;;
27491;SDS011;14927;51.210;6.838;2024-01-06T14:06:24;28.30;;;15.90;;
27491;SDS011;14927;51.210;6.838;2024-01-06T14:09:14;25.13;;;15.50;;
27491;SDS011;14927;51.210;6.838;2024-01-06T14:11:59;31.95;;;16.92;;
27491;SDS011;14927;51.210;6.838;2024-01-06T14:14:43;27.00;;;16.02;;
27491;SDS011;14927;51.210;6.838;2024-01-06T14:17:29;25.80;;;14.23;;
27491;SDS011;14927;51.210;6.838;2024-01-06T14:20:14;24.98;;;14.75;;
27491;SDS011;14927;51.210;6.838;2024-01-06T14:23:00;23.23;;;13.60;;
27491;SDS011;14927;51.210;6.838;2024-01-06T14:25:45;23.65;;;13.57;;
27491;SDS011;14927;51.210;6.838;2024-01-06T14:28:29;25.73;;;13.38;;
27491;SDS011;14927;51.210;6.838;2024-01-06T14:31:14;24.02;;;14.45;;
27491;SDS011;14927;51.210;6.838;2024-01-06T14:33:58;24.23;;;14.45;;
27491;SDS011;14927;51.210;6.838;2024-01-06T14:36:43;25.25;;;15.27;;
27491;SDS011;14927;51.210;6.838;2024-01-06T14:39:31;23.92;;;14.57;;
27491;SDS011;14927;51.210;6.838;2024-01-06T14:42:15;24.48;;;14.68;;
27491;SDS011;14927;51.210;6.838;2024-01-06T14:45:02;25.77;;;14.85;;
27491;SDS011;14927;51.210;6.838;2024-01-06T14:47:47;28.63;;;16.35;;
27491;SDS011;14927;51.210;6.838;2024-01-06T14:50:32;26.15;;;16.73;;
27491;SDS011;14927;51.210;6.838;2024-01-06T14:53:16;25.73;;;14.30;;
27491;SDS011;14927;51.210;6.838;2024-01-06T14:56:01;22.38;;;14.27;;
27491;SDS011;14927;51.210;6.838;2024-01-06T14:58:47;22.05;;;14.50;;
27491;SDS011;14927;51.210;6.838;2024-01-06T15:01:31;23.17;;;14.60;;
27491;SDS011;14927;51.210;6.838;2024-01-06T15:04:16;23.83;;;16.40;;
27491;SDS011;14927;51.210;6.838;2024-01-06T15:07:02;27.50;;;17.17;;
27491;SDS011;14927;51.210;6.838;2024-01-06T15:09:47;30.73;;;18.88;;
27491;SDS011;14927;51.210;6.838;2024-01-06T15:12:32;25.75;;;18.02;;
27491;SDS011;14927;51.210;6.838;2024-01-06T15:15:16;30.75;;;19.38;;
27491;SDS011;14927;51.210;6.838;2024-01-06T15:18:01;27.90;;;18.95;;
27491;SDS011;14927;51.210;6.838;2024-01-06T15:20:46;28.73;;;18.67;;
27491;SDS011;14927;51.210;6.838;2024-01-06T15:23:31;31.38;;;19.83;;
27491;SDS011;14927;51.210;6.838;2024-01-06T15:26:22;31.00;;;19.83;;
27491;SDS011;14927;51.210;6.838;2024-01-06T15:29:11;26.75;;;17.40;;
27491;SDS011;14927;51.210;6.838;2024-01-06T15:31:56;29.15;;;19.25;;
27491;SDS011;14927;51.210;6.838;2024-01-06T15:34:40;31.35;;;20.40;;
27491;SDS011;14927;51.210;6.838;2024-01-06T15:37:25;31.13;;;18.80;;
27491;SDS011;14927;51.210;6.838;2024-01-06T15:40:09;31.55;;;19.70;;
27491;SDS011;14927;51.210;6.838;2024-01-06T15:42:54;35.33;;;21.77;;
27491;SDS011;14927;51.210;6.838;2024-01-06T15:45:39;38.97;;;22.83;;
27491;SDS011;14927;51.210;6.838;2024-01-06T15:48:24;37.42;;;23.92;;
27491;SDS011;14927;51.210;6.838;2024-01-06T15:51:09;38.28;;;24.95;;
27491;SDS011;14927;51.210;6.838;2024-01-06T15:54:16;38.47;;;22.73;;
27491;SDS011;14927;51.210;6.838;2024-01-06T15:57:00;40.25;;;24.55;;
27491;SDS011;14927;51.210;6.838;2024-01-06T15:59:45;35.85;;;22.38;;
27491;SDS011;14927;51.210;6.838;2024-01-06T16:02:29;37.95;;;23.52;;
27491;SDS011;14927;51.210;6.838;2024-01-06T16:05:14;37.42;;;22.25;;
27491;SDS011;14927;51.210;6.838;2024-01-06T16:07:59;37.22;;;22.63;;
27491;SDS011;14927;51.210;6.838;2024-01-06T16:10:43;36.05;;;22.60;;
27491;SDS011;14927;51.210;6.838;2024-01-06T16:13:28;36.00;;;22.50;;
27491;SDS011;14927;51.210;6.838;2024-01-06T16:16:15;37.45;;;22.70;;
27491;SDS011;14927;51.210;6.838;2024-01-06T16:19:00;31.58;;;19.50;;
27491;SDS011;14927;51.210;6.838;2024-01-06T16:21:45;33.75;;;21.50;;
27491;SDS011;14927;51.210;6.838;2024-01-06T16:24:30;33.60;;;23.17;;
27491;SDS011;14927;51.210;6.838;2024-01-06T16:27:17;37.63;;;24.08;;
27491;SDS011;14927;51.210;6.838;2024-01-06T16:30:02;41.35;;;25.02;;
27491;SDS011;14927;51.210;6.838;2024-01-06T16:32:47;37.75;;;24.85;;
27491;SDS011;14927;51.210;6.838;2024-01-06T16:35:33;37.88;;;23.73;;
27491;SDS011;14927;51.210;6.838;2024-01-06T16:38:18;37.42;;;23.73;;
27491;SDS011;14927;51.210;6.838;2024-01-06T16:41:03;43.95;;;26.77;;
27491;SDS011;14927;51.210;6.838;2024-01-06T16:43:48;47.53;;;27.67;;
27491;SDS011;14927;51.210;6.838;2024-01-06T16:46:33;47.53;;;28.65;;
27491;SDS011;14927;51.210;6.838;2024-01-06T16:49:17;48.95;;;29.02;;
27491;SDS011;14927;51.210;6.838;2024-01-06T16:52:02;56.13;;;30.90;;